createdAt,value
2023-03-05T00:00:51.088Z,4.90
2023-03-05T00:06:53.472Z,4.80
2023-03-05T00:12:55.866Z,4.70
2023-03-05T00:18:59.700Z,4.70
2023-03-05T00:25:01.958Z,4.60
2023-03-05T00:31:04.386Z,4.50
2023-03-05T00:37:06.752Z,4.40
2023-03-05T00:43:10.036Z,4.30
2023-03-05T00:49:12.383Z,4.30
2023-03-05T00:55:14.628Z,4.20
2023-03-05T01:01:17.083Z,4.10
2023-03-05T01:07:19.659Z,4.00
2023-03-05T01:13:21.832Z,4.00
2023-03-05T01:19:24.162Z,3.90
2023-03-05T01:25:27.073Z,3.90
2023-03-05T01:31:29.647Z,3.90
2023-03-05T01:37:31.815Z,3.70
2023-03-05T01:43:34.317Z,3.70
2023-03-05T01:49:38.673Z,3.60
2023-03-05T01:55:40.964Z,3.50
2023-03-05T02:01:46.430Z,3.50
2023-03-05T02:07:48.833Z,3.40
2023-03-05T02:13:51.190Z,3.30
2023-03-05T02:19:56.669Z,3.20
2023-03-05T02:25:59.072Z,3.20
2023-03-05T02:32:02.047Z,3.20
2023-03-05T02:38:04.291Z,3.10
2023-03-05T02:44:06.454Z,3.00
2023-03-05T02:50:10.557Z,2.90
2023-03-05T02:56:13.419Z,2.90
2023-03-05T03:02:17.291Z,2.90
2023-03-05T03:08:19.488Z,2.90
2023-03-05T03:14:22.088Z,2.80
2023-03-05T03:20:24.647Z,2.80
2023-03-05T03:26:26.931Z,2.80
2023-03-05T03:32:29.595Z,2.80
2023-03-05T03:38:31.923Z,2.70
2023-03-05T03:44:34.117Z,2.70
2023-03-05T03:50:40.409Z,2.70
2023-03-05T03:56:42.707Z,2.70
2023-03-05T04:02:45.298Z,2.60
2023-03-05T04:08:47.870Z,2.60
2023-03-05T04:14:50.125Z,2.60
2023-03-05T04:20:52.422Z,2.60
2023-03-05T04:26:54.724Z,2.60
2023-03-05T04:32:57.168Z,2.50
2023-03-05T04:38:59.357Z,2.40
2023-03-05T04:45:01.459Z,2.40
2023-03-05T04:51:03.959Z,2.40
2023-03-05T04:57:06.355Z,2.40
2023-03-05T05:03:08.612Z,2.50
2023-03-05T05:09:10.874Z,2.60
2023-03-05T05:15:13.751Z,3.00
2023-03-05T05:21:16.536Z,4.60
2023-03-05T05:27:18.835Z,5.90
2023-03-05T05:33:22.086Z,6.70
2023-03-05T05:39:24.366Z,7.60
2023-03-05T05:45:26.914Z,9.20
2023-03-05T05:51:29.123Z,10.80
2023-03-05T05:57:31.419Z,12.00
2023-03-05T06:03:33.709Z,10.70
2023-03-05T06:09:36.949Z,12.20
2023-03-05T06:15:39.254Z,12.40
2023-03-05T06:21:41.727Z,13.70
2023-03-05T06:27:43.916Z,15.10
2023-03-05T06:33:46.511Z,16.40
2023-03-05T06:39:48.927Z,16.70
2023-03-05T06:46:05.524Z,17.60
2023-03-05T06:52:10.474Z,19.40
2023-03-05T06:58:12.712Z,21.40
2023-03-05T07:04:15.785Z,21.40
2023-03-05T07:10:18.098Z,21.60
2023-03-05T07:16:32.006Z,21.10
2023-03-05T07:22:34.331Z,20.10
2023-03-05T07:28:36.435Z,20.50
2023-03-05T07:34:39.625Z,20.30
2023-03-05T07:40:42.125Z,19.30
2023-03-05T07:46:44.418Z,16.70
2023-03-05T07:52:46.692Z,16.40
2023-03-05T07:58:48.892Z,16.20
2023-03-05T08:04:51.196Z,17.40
2023-03-05T08:10:53.489Z,17.60
2023-03-05T08:16:55.874Z,19.20
2023-03-05T08:22:58.173Z,18.40
2023-03-05T08:29:00.657Z,19.60
2023-03-05T08:35:04.906Z,20.30
2023-03-05T08:41:07.046Z,21.80
2023-03-05T08:47:09.373Z,23.30
2023-03-05T08:53:12.146Z,21.90
2023-03-05T08:59:15.011Z,22.10
2023-03-05T09:05:17.735Z,20.50
2023-03-05T09:11:20.248Z,19.60
2023-03-05T09:17:23.357Z,20.80
2023-03-05T09:23:25.942Z,20.70
2023-03-05T09:29:29.251Z,20.40
2023-03-05T09:35:36.436Z,20.70
2023-03-05T09:41:53.807Z,19.90
2023-03-05T09:48:02.227Z,19.90
2023-03-05T09:54:14.264Z,19.60
2023-03-05T10:00:35.112Z,18.70
2023-03-05T10:06:46.860Z,17.70
2023-03-05T10:12:56.556Z,17.40
2023-03-05T10:19:14.078Z,16.10
2023-03-05T10:25:25.292Z,16.10
2023-03-05T10:31:53.564Z,15.10
2023-03-05T10:38:02.632Z,15.00
2023-03-05T10:44:20.958Z,15.20
2023-03-05T10:50:25.897Z,15.60
2023-03-05T10:56:29.443Z,16.50
2023-03-05T11:02:31.845Z,17.20
2023-03-05T11:08:36.261Z,17.60
2023-03-05T11:14:46.945Z,20.50
2023-03-05T11:20:49.055Z,21.20
2023-03-05T11:26:53.977Z,20.80
2023-03-05T11:33:16.671Z,22.20
2023-03-05T11:39:25.092Z,23.10
2023-03-05T11:45:29.300Z,23.30
2023-03-05T11:51:45.108Z,22.20
2023-03-05T11:57:53.180Z,21.90
2023-03-05T12:03:56.034Z,18.70
2023-03-05T12:09:58.201Z,16.00
2023-03-05T12:16:29.413Z,15.10
2023-03-05T12:22:39.667Z,14.00
2023-03-05T12:28:41.971Z,14.60
2023-03-05T12:34:48.681Z,13.40
2023-03-05T12:40:51.072Z,12.90
2023-03-05T12:47:18.293Z,12.80
2023-03-05T12:53:21.512Z,12.60
2023-03-05T12:59:29.507Z,12.70
2023-03-05T13:05:34.730Z,12.70
2023-03-05T13:11:39.560Z,12.40
2023-03-05T13:17:52.227Z,12.10
2023-03-05T13:23:59.341Z,12.10
2023-03-05T13:30:01.766Z,12.10
2023-03-05T13:36:06.120Z,12.00
2023-03-05T13:42:23.945Z,12.50
2023-03-05T13:48:28.257Z,12.60
2023-03-05T13:54:31.198Z,12.60
2023-03-05T14:00:42.441Z,12.80
2023-03-05T14:06:55.950Z,12.60
2023-03-05T14:13:00.015Z,12.30
2023-03-05T14:19:05.306Z,12.10
2023-03-05T14:25:30.434Z,12.30
2023-03-05T14:31:46.015Z,12.20
2023-03-05T14:37:51.041Z,12.10
2023-03-05T14:43:53.851Z,12.00
2023-03-05T14:49:56.462Z,11.80
2023-03-05T14:55:58.927Z,11.50
2023-03-05T15:02:01.293Z,11.50
2023-03-05T15:08:03.822Z,11.40
2023-03-05T15:14:06.218Z,11.30
2023-03-05T15:20:30.728Z,11.30
2023-03-05T15:26:32.935Z,11.30
2023-03-05T15:32:35.168Z,11.20
2023-03-05T15:38:39.255Z,11.10
2023-03-05T15:44:42.986Z,11.10
2023-03-05T15:50:45.442Z,11.00
2023-03-05T15:56:48.337Z,10.90
2023-03-05T16:02:50.943Z,10.70
2023-03-05T16:08:57.609Z,10.50
2023-03-05T16:15:00.092Z,10.30
2023-03-05T16:21:03.124Z,10.10
2023-03-05T16:27:05.731Z,9.80
2023-03-05T16:33:08.106Z,9.50
2023-03-05T16:39:10.398Z,9.30
2023-03-05T16:45:13.549Z,9.00
2023-03-05T16:51:20.841Z,8.80
2023-03-05T16:57:26.334Z,8.70
2023-03-05T17:03:29.267Z,8.50
2023-03-05T17:09:31.342Z,8.30
2023-03-05T17:15:34.582Z,8.20
2023-03-05T17:21:38.453Z,8.00
2023-03-05T17:27:42.068Z,7.90
2023-03-05T17:33:44.573Z,7.80
2023-03-05T17:39:47.051Z,7.70
2023-03-05T17:45:49.501Z,7.60
2023-03-05T17:51:51.936Z,7.50
2023-03-05T17:57:54.476Z,7.50
2023-03-05T18:03:57.601Z,7.40
2023-03-05T18:10:00.552Z,7.30
2023-03-05T18:16:03.097Z,7.30
2023-03-05T18:22:05.377Z,7.20
2023-03-05T18:28:10.307Z,7.10
2023-03-05T18:34:12.467Z,7.00
2023-03-05T18:40:19.456Z,7.00
2023-03-05T18:46:21.869Z,6.90
2023-03-05T18:52:24.097Z,6.80
2023-03-05T18:58:26.448Z,6.70
2023-03-05T19:04:28.706Z,6.80
2023-03-05T19:10:32.416Z,6.70
2023-03-05T19:16:40.741Z,6.60
2023-03-05T19:22:43.194Z,6.50
2023-03-05T19:28:45.433Z,6.40
2023-03-05T19:34:49.850Z,6.40
2023-03-05T19:40:53.921Z,6.30
2023-03-05T19:46:56.294Z,6.30
2023-03-05T19:53:00.810Z,6.30
2023-03-05T19:59:03.528Z,6.30
2023-03-05T20:05:06.152Z,6.20
2023-03-05T20:11:11.536Z,6.20
2023-03-05T20:17:14.294Z,6.30
2023-03-05T20:23:16.514Z,6.50
2023-03-05T20:29:18.995Z,6.30
2023-03-05T20:35:21.429Z,6.20
2023-03-05T20:41:23.736Z,6.30
2023-03-05T20:47:51.928Z,6.40
2023-03-05T20:53:58.365Z,6.50
2023-03-05T21:00:00.708Z,6.60
2023-03-05T21:06:07.115Z,6.60
2023-03-05T21:12:09.645Z,6.70
2023-03-05T21:18:12.217Z,6.70
2023-03-05T21:24:33.131Z,6.60
2023-03-05T21:30:44.217Z,6.50
2023-03-05T21:36:46.568Z,6.40
2023-03-05T21:42:48.980Z,6.20
2023-03-05T21:48:51.154Z,6.10
2023-03-05T21:54:54.703Z,6.10
2023-03-05T22:00:58.517Z,6.00
2023-03-05T22:07:01.289Z,6.00
2023-03-05T22:13:10.772Z,5.90
2023-03-05T22:19:13.192Z,5.70
2023-03-05T22:25:16.617Z,5.50
2023-03-05T22:31:23.445Z,5.50
2023-03-05T22:37:25.971Z,5.50
2023-03-05T22:43:28.133Z,5.30
2023-03-05T22:49:30.411Z,5.00
2023-03-05T22:55:32.685Z,4.80
2023-03-05T23:01:34.991Z,4.60
2023-03-05T23:07:40.345Z,4.40
2023-03-05T23:13:42.594Z,4.10
2023-03-05T23:19:44.663Z,3.80
2023-03-05T23:25:50.201Z,3.60
2023-03-05T23:31:55.433Z,3.50
2023-03-05T23:37:59.510Z,3.40
2023-03-05T23:44:01.589Z,3.20
2023-03-05T23:50:08.888Z,3.10
2023-03-05T23:56:12.194Z,2.90
